sensor_id;sensor_type;location;lat;lon;timestamp;pressure;altitude;pressure_sealevel;temperature;humidity
70072;BME280;57434;42.794;23.302;2023-01-25T00:01:03;96822.31;;;0.46;78.31
70072;BME280;57434;42.794;23.302;2023-01-25T00:02:05;96838.88;;;0.53;78.13
70072;BME280;57434;42.794;23.302;2023-01-25T00:03:07;96779.41;;;0.13;78.46
70072;BME280;57434;42.794;23.302;2023-01-25T00:04:10;96816.41;;;0.44;78.32
70072;BME280;57434;42.794;23.302;2023-01-25T00:05:12;96826.66;;;0.43;78.29
70072;BME280;57434;42.794;23.302;2023-01-25T00:06:14;96741.19;;;-0.10;78.26
70072;BME280;57434;42.794;23.302;2023-01-25T00:07:16;96806.59;;;0.35;78.51
70072;BME280;57434;42.794;23.302;2023-01-25T00:08:17;96733.72;;;-0.06;78.27
70072;BME280;57434;42.794;23.302;2023-01-25T00:09:20;96769.13;;;0.20;78.12
70072;BME280;57434;42.794;23.302;2023-01-25T00:10:23;96789.19;;;0.42;78.31
70072;BME280;57434;42.794;23.302;2023-01-25T00:11:25;96642.41;;;-0.76;78.02
70072;BME280;57434;42.794;23.302;2023-01-25T00:12:27;96824.69;;;0.44;78.36
70072;BME280;57434;42.794;23.302;2023-01-25T00:13:29;96773.50;;;0.07;78.42
70072;BME280;57434;42.794;23.302;2023-01-25T00:14:31;96633.75;;;-0.88;78.31
70072;BME280;57434;42.794;23.302;2023-01-25T00:15:33;96814.44;;;0.41;78.44
70072;BME280;57434;42.794;23.302;2023-01-25T00:16:36;96693.56;;;-0.43;78.43
70072;BME280;57434;42.794;23.302;2023-01-25T00:17:38;96842.03;;;0.37;78.48
70072;BME280;57434;42.794;23.302;2023-01-25T00:18:40;96808.97;;;0.26;78.51
70072;BME280;57434;42.794;23.302;2023-01-25T00:19:42;96813.66;;;0.40;78.53
70072;BME280;57434;42.794;23.302;2023-01-25T00:20:44;96781.38;;;0.19;78.26
70072;BME280;57434;42.794;23.302;2023-01-25T00:21:46;96808.16;;;0.22;78.25
70072;BME280;57434;42.794;23.302;2023-01-25T00:22:48;96792.38;;;0.33;78.42
70072;BME280;57434;42.794;23.302;2023-01-25T00:23:50;96649.09;;;-0.62;78.40
70072;BME280;57434;42.794;23.302;2023-01-25T00:24:52;96816.00;;;0.45;78.44
70072;BME280;57434;42.794;23.302;2023-01-25T00:25:57;96783.72;;;0.10;78.05
70072;BME280;57434;42.794;23.302;2023-01-25T00:27:01;96798.31;;;0.28;77.83
70072;BME280;57434;42.794;23.302;2023-01-25T00:28:03;96813.63;;;0.54;77.85
70072;BME280;57434;42.794;23.302;2023-01-25T00:29:05;96751.41;;;0.21;77.48
70072;BME280;57434;42.794;23.302;2023-01-25T00:30:08;96818.38;;;0.54;77.26
70072;BME280;57434;42.794;23.302;2023-01-25T00:31:16;96813.63;;;0.51;77.68
70072;BME280;57434;42.794;23.302;2023-01-25T00:35:47;96790.03;;;0.32;77.65
70072;BME280;57434;42.794;23.302;2023-01-25T00:38:34;96832.56;;;0.52;77.22
70072;BME280;57434;42.794;23.302;2023-01-25T00:39:39;96823.88;;;0.54;77.24
70072;BME280;57434;42.794;23.302;2023-01-25T00:40:40;96826.25;;;0.55;77.18
70072;BME280;57434;42.794;23.302;2023-01-25T00:41:43;96828.63;;;0.50;77.39
70072;BME280;57434;42.794;23.302;2023-01-25T00:42:45;96723.50;;;-0.27;77.62
70072;BME280;57434;42.794;23.302;2023-01-25T00:43:47;96772.69;;;0.21;77.89
70072;BME280;57434;42.794;23.302;2023-01-25T00:44:49;96797.47;;;0.39;77.85
70072;BME280;57434;42.794;23.302;2023-01-25T00:45:51;96641.59;;;-0.66;78.12
70072;BME280;57434;42.794;23.302;2023-01-25T00:46:53;96806.56;;;0.39;78.23
70072;BME280;57434;42.794;23.302;2023-01-25T00:47:55;96822.72;;;0.44;77.95
70072;BME280;57434;42.794;23.302;2023-01-25T00:48:57;96823.09;;;0.50;77.63
70072;BME280;57434;42.794;23.302;2023-01-25T00:49:59;96659.34;;;-0.81;77.54
70072;BME280;57434;42.794;23.302;2023-01-25T00:51:02;96656.97;;;-0.57;77.74
70072;BME280;57434;42.794;23.302;2023-01-25T00:52:05;96818.38;;;0.40;77.84
70072;BME280;57434;42.794;23.302;2023-01-25T00:53:07;96702.22;;;-0.41;78.00
70072;BME280;57434;42.794;23.302;2023-01-25T00:54:09;96750.66;;;0.03;77.90
70072;BME280;57434;42.794;23.302;2023-01-25T00:55:11;96808.50;;;0.46;77.57
70072;BME280;57434;42.794;23.302;2023-01-25T00:56:14;96798.25;;;0.53;77.37
70072;BME280;57434;42.794;23.302;2023-01-25T00:57:16;96725.78;;;0.10;77.14
70072;BME280;57434;42.794;23.302;2023-01-25T00:58:18;96823.09;;;0.53;77.43
70072;BME280;57434;42.794;23.302;2023-01-25T00:59:21;96659.31;;;-0.52;77.18
70072;BME280;57434;42.794;23.302;2023-01-25T01:00:24;96816.00;;;0.52;77.26
70072;BME280;57434;42.794;23.302;2023-01-25T01:01:25;96828.66;;;0.32;76.77
70072;BME280;57434;42.794;23.302;2023-01-25T01:02:29;96832.97;;;0.51;77.12
70072;BME280;57434;42.794;23.302;2023-01-25T01:03:31;96754.59;;;-0.16;77.18
70072;BME280;57434;42.794;23.302;2023-01-25T01:04:33;96819.56;;;0.49;77.35
70072;BME280;57434;42.794;23.302;2023-01-25T01:05:35;96633.75;;;-0.78;77.42
70072;BME280;57434;42.794;23.302;2023-01-25T01:06:38;96809.72;;;0.38;77.18
70072;BME280;57434;42.794;23.302;2023-01-25T01:07:41;96773.91;;;-0.09;76.98
70072;BME280;57434;42.794;23.302;2023-01-25T01:08:43;96656.56;;;-0.59;76.89
70072;BME280;57434;42.794;23.302;2023-01-25T01:09:45;96823.50;;;0.48;76.59
70072;BME280;57434;42.794;23.302;2023-01-25T01:10:47;96829.03;;;0.52;76.67
70072;BME280;57434;42.794;23.302;2023-01-25T01:11:49;96704.97;;;-0.26;76.68
70072;BME280;57434;42.794;23.302;2023-01-25T01:12:51;96809.31;;;0.46;76.78
70072;BME280;57434;42.794;23.302;2023-01-25T01:13:55;96820.72;;;0.55;76.64
70072;BME280;57434;42.794;23.302;2023-01-25T01:14:57;96838.50;;;0.54;76.21
70072;BME280;57434;42.794;23.302;2023-01-25T01:16:01;96568.84;;;-1.00;76.00
70072;BME280;57434;42.794;23.302;2023-01-25T01:17:03;96628.25;;;-0.78;75.91
70072;BME280;57434;42.794;23.302;2023-01-25T01:18:05;96823.09;;;0.53;76.13
70072;BME280;57434;42.794;23.302;2023-01-25T01:19:07;96685.31;;;-0.60;75.97
70072;BME280;57434;42.794;23.302;2023-01-25T01:20:10;96687.66;;;-0.34;76.08
70072;BME280;57434;42.794;23.302;2023-01-25T01:21:12;96765.25;;;0.07;76.71
70072;BME280;57434;42.794;23.302;2023-01-25T01:22:14;96797.91;;;0.23;77.14
70072;BME280;57434;42.794;23.302;2023-01-25T01:23:17;96796.34;;;0.18;77.04
70072;BME280;57434;42.794;23.302;2023-01-25T01:24:19;96809.75;;;0.34;76.87
70072;BME280;57434;42.794;23.302;2023-01-25T01:25:21;96793.97;;;0.20;77.27
70072;BME280;57434;42.794;23.302;2023-01-25T01:26:23;96797.13;;;0.12;77.96
70072;BME280;57434;42.794;23.302;2023-01-25T01:27:25;96797.53;;;0.24;78.11
70072;BME280;57434;42.794;23.302;2023-01-25T01:28:28;96809.34;;;0.28;77.43
70072;BME280;57434;42.794;23.302;2023-01-25T01:29:30;96805.00;;;0.31;77.42
70072;BME280;57434;42.794;23.302;2023-01-25T01:30:32;96679.78;;;-0.68;77.12
70072;BME280;57434;42.794;23.302;2023-01-25T01:31:34;96807.38;;;0.25;77.26
70072;BME280;57434;42.794;23.302;2023-01-25T01:32:37;96767.97;;;0.11;77.10
70072;BME280;57434;42.794;23.302;2023-01-25T01:33:39;96800.28;;;0.35;77.08
70072;BME280;57434;42.794;23.302;2023-01-25T01:34:41;96799.44;;;0.38;77.12
70072;BME280;57434;42.794;23.302;2023-01-25T01:35:43;96788.41;;;0.38;76.86
70072;BME280;57434;42.794;23.302;2023-01-25T01:36:45;96763.22;;;0.22;76.57
70072;BME280;57434;42.794;23.302;2023-01-25T01:37:48;96780.19;;;0.24;76.62
70072;BME280;57434;42.794;23.302;2023-01-25T01:38:50;96723.84;;;-0.11;76.98
70072;BME280;57434;42.794;23.302;2023-01-25T01:39:52;96782.94;;;0.20;77.27
70072;BME280;57434;42.794;23.302;2023-01-25T01:40:54;96612.88;;;-0.89;77.29
70072;BME280;57434;42.794;23.302;2023-01-25T01:41:56;96797.13;;;0.26;77.49
70072;BME280;57434;42.794;23.302;2023-01-25T01:43:04;96781.75;;;0.14;77.66
70072;BME280;57434;42.794;23.302;2023-01-25T01:44:16;96793.97;;;0.20;78.10
70072;BME280;57434;42.794;23.302;2023-01-25T01:46:53;96791.63;;;0.19;77.72
70072;BME280;57434;42.794;23.302;2023-01-25T01:47:55;96657.75;;;-0.60;77.27
70072;BME280;57434;42.794;23.302;2023-01-25T01:49:03;96780.56;;;0.19;77.25
70072;BME280;57434;42.794;23.302;2023-01-25T01:50:20;96769.53;;;0.26;76.83
70072;BME280;57434;42.794;23.302;2023-01-25T01:51:46;96794.72;;;0.46;76.97
70072;BME280;57434;42.794;23.302;2023-01-25T01:52:48;96760.47;;;0.25;77.11
70072;BME280;57434;42.794;23.302;2023-01-25T01:54:09;96783.72;;;0.28;77.34
70072;BME280;57434;42.794;23.302;2023-01-25T01:55:15;96785.69;;;0.34;77.36
70072;BME280;57434;42.794;23.302;2023-01-25T01:56:25;96790.03;;;0.28;77.40
70072;BME280;57434;42.794;23.302;2023-01-25T01:57:46;96791.63;;;0.22;77.69
70072;BME280;57434;42.794;23.302;2023-01-25T01:58:52;96766.00;;;0.11;77.81
70072;BME280;57434;42.794;23.302;2023-01-25T02:00:15;96715.22;;;-0.30;77.51
70072;BME280;57434;42.794;23.302;2023-01-25T02:01:19;96792.78;;;0.25;77.80
70072;BME280;57434;42.794;23.302;2023-01-25T02:02:22;96780.19;;;0.13;77.61
70072;BME280;57434;42.794;23.302;2023-01-25T02:03:26;96797.53;;;0.28;77.49
70072;BME280;57434;42.794;23.302;2023-01-25T02:04:29;96796.75;;;0.17;77.27
70072;BME280;57434;42.794;23.302;2023-01-25T02:07:04;96782.13;;;0.34;77.26
70072;BME280;57434;42.794;23.302;2023-01-25T02:08:10;96787.25;;;0.32;77.28
70072;BME280;57434;42.794;23.302;2023-01-25T02:09:18;96586.53;;;-1.01;77.41
70072;BME280;57434;42.794;23.302;2023-01-25T02:10:25;96797.13;;;0.29;77.15
70072;BME280;57434;42.794;23.302;2023-01-25T02:11:28;96650.25;;;-0.67;77.16
70072;BME280;57434;42.794;23.302;2023-01-25T02:12:31;96793.13;;;0.41;77.21
70072;BME280;57434;42.794;23.302;2023-01-25T02:13:34;96623.88;;;-0.72;76.34
70072;BME280;57434;42.794;23.302;2023-01-25T02:14:46;96790.44;;;0.20;76.60
70072;BME280;57434;42.794;23.302;2023-01-25T02:15:50;96777.81;;;0.29;76.81
70072;BME280;57434;42.794;23.302;2023-01-25T02:16:53;96747.09;;;0.06;76.67
70072;BME280;57434;42.794;23.302;2023-01-25T02:17:55;96639.63;;;-0.69;77.08
70072;BME280;57434;42.794;23.302;2023-01-25T02:18:58;96825.13;;;0.31;77.28
70072;BME280;57434;42.794;23.302;2023-01-25T02:21:08;96795.53;;;0.32;77.18
70072;BME280;57434;42.794;23.302;2023-01-25T02:22:13;96735.69;;;0.00;77.06
70072;BME280;57434;42.794;23.302;2023-01-25T02:23:22;96809.75;;;0.34;76.88
70072;BME280;57434;42.794;23.302;2023-01-25T02:24:30;96768.75;;;0.18;76.06
70072;BME280;57434;42.794;23.302;2023-01-25T02:25:34;96708.53;;;-0.19;76.25
70072;BME280;57434;42.794;23.302;2023-01-25T02:26:36;96710.84;;;-0.07;76.10
70072;BME280;57434;42.794;23.302;2023-01-25T02:27:42;96780.91;;;0.46;76.08
70072;BME280;57434;42.794;23.302;2023-01-25T02:28:58;96787.63;;;0.41;76.70
70072;BME280;57434;42.794;23.302;2023-01-25T02:30:02;96795.50;;;0.46;76.49
70072;BME280;57434;42.794;23.302;2023-01-25T02:31:05;96792.34;;;0.37;76.82
70072;BME280;57434;42.794;23.302;2023-01-25T02:32:07;96790.03;;;0.32;76.83
70072;BME280;57434;42.794;23.302;2023-01-25T02:33:10;96734.09;;;-0.04;76.99
70072;BME280;57434;42.794;23.302;2023-01-25T02:34:12;96788.44;;;0.27;77.20
70072;BME280;57434;42.794;23.302;2023-01-25T02:35:23;96795.56;;;0.28;77.31
70072;BME280;57434;42.794;23.302;2023-01-25T02:36:30;96763.22;;;0.11;76.92
70072;BME280;57434;42.794;23.302;2023-01-25T02:37:33;96716.75;;;-0.05;76.43
70072;BME280;57434;42.794;23.302;2023-01-25T02:38:41;96787.25;;;0.35;76.83
70072;BME280;57434;42.794;23.302;2023-01-25T02:39:44;96764.03;;;0.15;77.02
70072;BME280;57434;42.794;23.302;2023-01-25T02:41:02;96779.00;;;0.25;77.37
70072;BME280;57434;42.794;23.302;2023-01-25T02:42:07;96743.16;;;0.04;77.08
70072;BME280;57434;42.794;23.302;2023-01-25T02:43:09;96743.56;;;0.09;77.40
70072;BME280;57434;42.794;23.302;2023-01-25T02:44:22;96765.19;;;0.25;77.25
70072;BME280;57434;42.794;23.302;2023-01-25T02:45:28;96751.41;;;0.18;76.88
70072;BME280;57434;42.794;23.302;2023-01-25T02:46:32;96772.28;;;0.37;76.99
70072;BME280;57434;42.794;23.302;2023-01-25T02:47:35;96753.75;;;0.19;77.20
70072;BME280;57434;42.794;23.302;2023-01-25T02:48:37;96663.25;;;-0.46;76.87
70072;BME280;57434;42.794;23.302;2023-01-25T02:49:39;96765.59;;;0.16;76.92
70072;BME280;57434;42.794;23.302;2023-01-25T02:50:41;96786.06;;;0.37;77.17
70072;BME280;57434;42.794;23.302;2023-01-25T02:51:46;96795.50;;;0.43;77.01
70072;BME280;57434;42.794;23.302;2023-01-25T02:52:48;96676.63;;;-0.34;76.55
70072;BME280;57434;42.794;23.302;2023-01-25T02:53:50;96782.53;;;0.36;76.69
70072;BME280;57434;42.794;23.302;2023-01-25T02:54:53;96776.22;;;0.32;77.07
70072;BME280;57434;42.794;23.302;2023-01-25T02:55:55;96752.19;;;0.22;76.99
70072;BME280;57434;42.794;23.302;2023-01-25T02:56:57;96640.78;;;-0.45;76.89
70072;BME280;57434;42.794;23.302;2023-01-25T02:58:20;96765.53;;;0.48;76.14
70072;BME280;57434;42.794;23.302;2023-01-25T02:59:22;96775.78;;;0.51;75.82
70072;BME280;57434;42.794;23.302;2023-01-25T03:00:24;96698.63;;;0.01;75.62
70072;BME280;57434;42.794;23.302;2023-01-25T03:01:26;96754.88;;;0.40;75.93
70072;BME280;57434;42.794;23.302;2023-01-25T03:02:28;96764.72;;;0.51;76.19
70072;BME280;57434;42.794;23.302;2023-01-25T03:03:30;96767.50;;;0.37;75.66
70072;BME280;57434;42.794;23.302;2023-01-25T03:04:32;96549.56;;;-1.04;75.73
70072;BME280;57434;42.794;23.302;2023-01-25T03:05:34;96788.41;;;0.45;76.20
70072;BME280;57434;42.794;23.302;2023-01-25T03:06:37;96780.91;;;0.46;76.33
70072;BME280;57434;42.794;23.302;2023-01-25T03:07:39;96701.78;;;-0.00;76.27
70072;BME280;57434;42.794;23.302;2023-01-25T03:08:41;96747.00;;;0.42;76.17
70072;BME280;57434;42.794;23.302;2023-01-25T03:09:44;96773.78;;;0.59;75.79
70072;BME280;57434;42.794;23.302;2023-01-25T03:10:46;96536.59;;;-1.35;75.36
70072;BME280;57434;42.794;23.302;2023-01-25T03:11:48;96774.19;;;0.54;75.17
70072;BME280;57434;42.794;23.302;2023-01-25T03:12:50;96779.72;;;0.54;76.00
70072;BME280;57434;42.794;23.302;2023-01-25T03:13:52;96762.03;;;0.23;76.00
70072;BME280;57434;42.794;23.302;2023-01-25T03:14:54;96745.06;;;0.28;75.81
70072;BME280;57434;42.794;23.302;2023-01-25T03:16:05;96783.66;;;0.49;75.74
70072;BME280;57434;42.794;23.302;2023-01-25T03:17:07;96750.22;;;0.15;75.60
70072;BME280;57434;42.794;23.302;2023-01-25T03:18:09;96781.69;;;0.43;75.91
70072;BME280;57434;42.794;23.302;2023-01-25T03:19:11;96782.50;;;0.43;75.98
70072;BME280;57434;42.794;23.302;2023-01-25T03:20:13;96741.16;;;0.18;75.52
70072;BME280;57434;42.794;23.302;2023-01-25T03:21:17;96777.75;;;0.40;75.18
70072;BME280;57434;42.794;23.302;2023-01-25T03:22:20;96784.44;;;0.57;75.19
70072;BME280;57434;42.794;23.302;2023-01-25T03:23:22;96791.53;;;0.54;74.90
70072;BME280;57434;42.794;23.302;2023-01-25T03:24:24;96789.56;;;0.51;75.16
70072;BME280;57434;42.794;23.302;2023-01-25T03:25:26;96779.31;;;0.48;75.09
70072;BME280;57434;42.794;23.302;2023-01-25T03:26:28;96747.06;;;0.17;75.22
70072;BME280;57434;42.794;23.302;2023-01-25T03:27:30;96783.28;;;0.47;75.48
70072;BME280;57434;42.794;23.302;2023-01-25T03:28:32;96788.78;;;0.44;75.56
70072;BME280;57434;42.794;23.302;2023-01-25T03:29:34;96777.00;;;0.36;75.72
70072;BME280;57434;42.794;23.302;2023-01-25T03:30:36;96782.47;;;0.47;76.26
70072;BME280;57434;42.794;23.302;2023-01-25T03:31:38;96758.09;;;0.20;75.83
70072;BME280;57434;42.794;23.302;2023-01-25T03:32:40;96792.34;;;0.44;75.74
70072;BME280;57434;42.794;23.302;2023-01-25T03:33:43;96772.69;;;0.14;75.99
70072;BME280;57434;42.794;23.302;2023-01-25T03:34:45;96773.81;;;0.38;76.08
70072;BME280;57434;42.794;23.302;2023-01-25T03:35:53;96787.22;;;0.50;76.00
70072;BME280;57434;42.794;23.302;2023-01-25T03:36:55;96757.69;;;0.25;75.62
70072;BME280;57434;42.794;23.302;2023-01-25T03:37:57;96786.03;;;0.54;75.30
70072;BME280;57434;42.794;23.302;2023-01-25T03:38:59;96749.41;;;0.29;75.24
70072;BME280;57434;42.794;23.302;2023-01-25T03:40:01;96702.59;;;-0.10;75.55
70072;BME280;57434;42.794;23.302;2023-01-25T03:41:03;96778.59;;;0.33;75.88
70072;BME280;57434;42.794;23.302;2023-01-25T03:42:05;96791.56;;;0.44;75.99
70072;BME280;57434;42.794;23.302;2023-01-25T03:43:07;96782.09;;;0.38;76.14
70072;BME280;57434;42.794;23.302;2023-01-25T03:44:09;96790.00;;;0.39;76.26
70072;BME280;57434;42.794;23.302;2023-01-25T03:45:11;96760.84;;;0.24;75.89
70072;BME280;57434;42.794;23.302;2023-01-25T03:46:13;96741.19;;;0.04;75.97
70072;BME280;57434;42.794;23.302;2023-01-25T03:47:15;96799.09;;;0.32;75.83
70072;BME280;57434;42.794;23.302;2023-01-25T03:48:18;96716.38;;;-0.10;75.48
70072;BME280;57434;42.794;23.302;2023-01-25T03:49:20;96730.16;;;-0.07;75.85
70072;BME280;57434;42.794;23.302;2023-01-25T03:50:22;96728.19;;;0.01;76.17
70072;BME280;57434;42.794;23.302;2023-01-25T03:51:24;96778.94;;;0.39;76.11
70072;BME280;57434;42.794;23.302;2023-01-25T03:52:29;96765.19;;;0.32;76.20
70072;BME280;57434;42.794;23.302;2023-01-25T03:53:31;96774.25;;;0.32;76.33
70072;BME280;57434;42.794;23.302;2023-01-25T03:54:33;96767.59;;;0.09;75.83
70072;BME280;57434;42.794;23.302;2023-01-25T03:55:35;96664.81;;;-0.45;76.21
70072;BME280;57434;42.794;23.302;2023-01-25T03:56:37;96737.28;;;-0.20;76.45
70072;BME280;57434;42.794;23.302;2023-01-25T03:57:39;96764.44;;;0.07;76.73
70072;BME280;57434;42.794;23.302;2023-01-25T03:58:41;96743.16;;;-0.07;76.90
70072;BME280;57434;42.794;23.302;2023-01-25T03:59:43;96778.22;;;0.17;76.82
70072;BME280;57434;42.794;23.302;2023-01-25T04:00:45;96756.94;;;0.11;76.87
70072;BME280;57434;42.794;23.302;2023-01-25T04:01:47;96753.03;;;0.01;76.63
70072;BME280;57434;42.794;23.302;2023-01-25T04:02:49;96734.91;;;-0.04;76.83
70072;BME280;57434;42.794;23.302;2023-01-25T04:03:51;96623.91;;;-0.93;77.06
70072;BME280;57434;42.794;23.302;2023-01-25T04:04:53;96700.25;;;-0.40;77.39
70072;BME280;57434;42.794;23.302;2023-01-25T04:05:57;96768.41;;;-0.02;77.83
70072;BME280;57434;42.794;23.302;2023-01-25T04:06:59;96747.91;;;-0.08;77.77
70072;BME280;57434;42.794;23.302;2023-01-25T04:08:01;96568.84;;;-1.28;77.57
70072;BME280;57434;42.794;23.302;2023-01-25T04:09:03;96782.19;;;0.02;77.52
70072;BME280;57434;42.794;23.302;2023-01-25T04:10:07;96773.91;;;0.06;77.57
70072;BME280;57434;42.794;23.302;2023-01-25T04:11:09;96747.91;;;-0.08;77.53
70072;BME280;57434;42.794;23.302;2023-01-25T04:12:11;96771.91;;;0.10;77.69
70072;BME280;57434;42.794;23.302;2023-01-25T04:13:13;96782.19;;;0.06;77.27
70072;BME280;57434;42.794;23.302;2023-01-25T04:14:15;96720.75;;;-0.34;76.97
70072;BME280;57434;42.794;23.302;2023-01-25T04:15:26;96766.78;;;0.12;77.15
70072;BME280;57434;42.794;23.302;2023-01-25T04:16:27;96783.75;;;0.07;77.50
70072;BME280;57434;42.794;23.302;2023-01-25T04:17:29;96779.00;;;0.11;77.24
70072;BME280;57434;42.794;23.302;2023-01-25T04:18:31;96629.03;;;-0.74;77.15
70072;BME280;57434;42.794;23.302;2023-01-25T04:19:33;96752.22;;;-0.10;77.63
70072;BME280;57434;42.794;23.302;2023-01-25T04:20:35;96768.41;;;-0.02;77.91
70072;BME280;57434;42.794;23.302;2023-01-25T04:21:37;96786.13;;;-0.13;77.98
70072;BME280;57434;42.794;23.302;2023-01-25T04:22:39;96772.34;;;-0.03;78.43
70072;BME280;57434;42.794;23.302;2023-01-25T04:23:42;96755.38;;;-0.12;78.48
70072;BME280;57434;42.794;23.302;2023-01-25T04:24:44;96601.50;;;-1.09;77.87
70072;BME280;57434;42.794;23.302;2023-01-25T04:26:00;96746.72;;;-0.14;77.72
70072;BME280;57434;42.794;23.302;2023-01-25T04:27:02;96788.06;;;0.11;77.52
70072;BME280;57434;42.794;23.302;2023-01-25T04:28:04;96740.00;;;0.01;77.38
70072;BME280;57434;42.794;23.302;2023-01-25T04:29:06;96757.75;;;0.04;76.74
70072;BME280;57434;42.794;23.302;2023-01-25T04:30:09;96738.81;;;0.06;76.91
70072;BME280;57434;42.794;23.302;2023-01-25T04:31:11;96734.50;;;0.01;77.31
70072;BME280;57434;42.794;23.302;2023-01-25T04:32:13;96724.66;;;-0.14;77.95
70072;BME280;57434;42.794;23.302;2023-01-25T04:33:15;96769.16;;;0.10;77.49
70072;BME280;57434;42.794;23.302;2023-01-25T04:34:17;96795.94;;;0.16;77.74
70072;BME280;57434;42.794;23.302;2023-01-25T04:35:20;96767.56;;;0.23;77.20
70072;BME280;57434;42.794;23.302;2023-01-25T04:36:22;96778.22;;;0.21;77.38
70072;BME280;57434;42.794;23.302;2023-01-25T04:37:24;96595.59;;;-1.04;76.97
70072;BME280;57434;42.794;23.302;2023-01-25T04:38:26;96761.25;;;0.19;77.36
70072;BME280;57434;42.794;23.302;2023-01-25T04:39:28;96630.19;;;-0.71;77.03
70072;BME280;57434;42.794;23.302;2023-01-25T04:40:31;96761.63;;;0.28;77.41
70072;BME280;57434;42.794;23.302;2023-01-25T04:41:33;96726.22;;;-0.06;77.49
70072;BME280;57434;42.794;23.302;2023-01-25T04:42:35;96711.66;;;-0.17;77.16
70072;BME280;57434;42.794;23.302;2023-01-25T04:43:37;96729.38;;;-0.04;77.52
70072;BME280;57434;42.794;23.302;2023-01-25T04:44:39;96712.84;;;-0.11;77.45
70072;BME280;57434;42.794;23.302;2023-01-25T04:45:41;96788.47;;;0.20;77.41
70072;BME280;57434;42.794;23.302;2023-01-25T04:46:43;96689.63;;;-0.45;77.38
70072;BME280;57434;42.794;23.302;2023-01-25T04:47:45;96598.72;;;-0.81;77.08
70072;BME280;57434;42.794;23.302;2023-01-25T04:48:47;96776.63;;;0.34;77.19
70072;BME280;57434;42.794;23.302;2023-01-25T04:49:49;96772.69;;;0.28;77.29
70072;BME280;57434;42.794;23.302;2023-01-25T04:50:51;96605.81;;;-0.87;77.46
70072;BME280;57434;42.794;23.302;2023-01-25T04:51:53;96567.25;;;-1.22;77.55
70072;BME280;57434;42.794;23.302;2023-01-25T04:52:55;96766.78;;;0.12;77.92
70072;BME280;57434;42.794;23.302;2023-01-25T04:53:57;96784.53;;;0.11;77.92
70072;BME280;57434;42.794;23.302;2023-01-25T04:54:59;96764.06;;;0.01;77.98
70072;BME280;57434;42.794;23.302;2023-01-25T04:56:01;96779.41;;;0.13;78.06
70072;BME280;57434;42.794;23.302;2023-01-25T04:57:03;96774.31;;;0.08;78.16
70072;BME280;57434;42.794;23.302;2023-01-25T04:58:05;96772.72;;;0.03;78.29
70072;BME280;57434;42.794;23.302;2023-01-25T04:59:07;96694.75;;;-0.54;77.98
70072;BME280;57434;42.794;23.302;2023-01-25T05:00:09;96579.44;;;-1.13;77.72
70072;BME280;57434;42.794;23.302;2023-01-25T05:01:12;96745.53;;;-0.13;77.87
70072;BME280;57434;42.794;23.302;2023-01-25T05:02:14;96776.28;;;0.07;77.95
70072;BME280;57434;42.794;23.302;2023-01-25T05:03:16;96766.81;;;-0.03;77.72
70072;BME280;57434;42.794;23.302;2023-01-25T05:04:18;96771.53;;;0.04;77.59
70072;BME280;57434;42.794;23.302;2023-01-25T05:05:20;96796.78;;;0.02;77.45
70072;BME280;57434;42.794;23.302;2023-01-25T05:06:22;96761.69;;;0.07;77.36
70072;BME280;57434;42.794;23.302;2023-01-25T05:07:24;96777.44;;;0.10;77.58
70072;BME280;57434;42.794;23.302;2023-01-25T05:08:26;96742.03;;;-0.24;77.52
70072;BME280;57434;42.794;23.302;2023-01-25T05:09:28;96770.34;;;0.09;77.41
70072;BME280;57434;42.794;23.302;2023-01-25T05:10:30;96773.50;;;0.07;77.44
70072;BME280;57434;42.794;23.302;2023-01-25T05:11:32;96738.03;;;-0.16;77.33
70072;BME280;57434;42.794;23.302;2023-01-25T05:12:34;96730.59;;;-0.19;77.26
70072;BME280;57434;42.794;23.302;2023-01-25T05:13:36;96586.94;;;-1.06;77.18
70072;BME280;57434;42.794;23.302;2023-01-25T05:14:38;96772.69;;;0.10;77.06
70072;BME280;57434;42.794;23.302;2023-01-25T05:15:40;96762.09;;;0.09;77.30
70072;BME280;57434;42.794;23.302;2023-01-25T05:16:43;96786.88;;;0.19;76.96
70072;BME280;57434;42.794;23.302;2023-01-25T05:17:45;96769.16;;;0.13;76.93
70072;BME280;57434;42.794;23.302;2023-01-25T05:18:47;96781.78;;;0.04;77.25
70072;BME280;57434;42.794;23.302;2023-01-25T05:19:49;96745.94;;;-0.11;77.72
70072;BME280;57434;42.794;23.302;2023-01-25T05:20:55;96716.41;;;-0.42;77.70
70072;BME280;57434;42.794;23.302;2023-01-25T05:21:57;96760.13;;;-0.02;77.79
70072;BME280;57434;42.794;23.302;2023-01-25T05:22:59;96629.03;;;-0.81;77.55
70072;BME280;57434;42.794;23.302;2023-01-25T05:24:01;96783.72;;;0.21;77.85
70072;BME280;57434;42.794;23.302;2023-01-25T05:25:04;96781.75;;;0.18;77.52
70072;BME280;57434;42.794;23.302;2023-01-25T05:26:07;96780.56;;;0.19;77.55
70072;BME280;57434;42.794;23.302;2023-01-25T05:27:14;96780.56;;;0.15;77.44
70072;BME280;57434;42.794;23.302;2023-01-25T05:28:16;96777.41;;;0.17;77.69
70072;BME280;57434;42.794;23.302;2023-01-25T05:29:18;96773.88;;;0.16;77.59
70072;BME280;57434;42.794;23.302;2023-01-25T05:30:20;96745.53;;;-0.06;77.65
70072;BME280;57434;42.794;23.302;2023-01-25T05:31:22;96779.38;;;0.20;77.50
70072;BME280;57434;42.794;23.302;2023-01-25T05:32:24;96777.44;;;0.13;77.54
70072;BME280;57434;42.794;23.302;2023-01-25T05:33:26;96769.97;;;0.07;77.55
70072;BME280;57434;42.794;23.302;2023-01-25T05:34:28;96780.56;;;0.12;77.63
70072;BME280;57434;42.794;23.302;2023-01-25T05:35:31;96614.06;;;-0.94;77.53
70072;BME280;57434;42.794;23.302;2023-01-25T05:36:33;96781.75;;;0.11;78.13
70072;BME280;57434;42.794;23.302;2023-01-25T05:37:34;96727.03;;;-0.26;78.05
70072;BME280;57434;42.794;23.302;2023-01-25T05:38:36;96774.69;;;0.02;78.34
70072;BME280;57434;42.794;23.302;2023-01-25T05:39:38;96757.34;;;-0.05;78.41
70072;BME280;57434;42.794;23.302;2023-01-25T05:40:41;96771.16;;;0.06;78.04
70072;BME280;57434;42.794;23.302;2023-01-25T05:41:43;96772.31;;;0.12;77.97
70072;BME280;57434;42.794;23.302;2023-01-25T05:42:52;96780.19;;;0.10;78.14
70072;BME280;57434;42.794;23.302;2023-01-25T05:43:54;96758.94;;;-0.08;78.20